Wooster, OH (44691)

4:33 PM EDT on September 02, 2015 (GMT -0400)
Silver Rd - Wooster, OH | | Change Station
CLOSE
Current Station
Personal Weather Station
Location: Wooster, OH
Elevation: 971 ft
Nearby Weather Stations

Elev 971 ft 40.81 °N, 82.00 °W | Updated 6 minutes ago

Clear
Clear
83.4 °F
Feels Like 88 °F
N
0.0
Wind Variable Wind from North

Today
High -- | Low -- °F
--% Chance of Precip.
Yesterday
High -- | Low -- °F
Precip. -- in
6:55 AM 7:58 PM
Waning Gibbous, 77% visible
Pressure 30.01 in
Visibility 9.0 miles
Clouds Scattered Clouds 4800 ft
Scattered Clouds 8500 ft
Heat Index 88 °F
Dew Point 70 °F
Humidity 65%
Rainfall Not available.
Snow Depth Not available.
UV 5 out of 12
Pollen 10.40 out of 12
Air Quality Not available.
Flu Activity Not available.
METAR KBJJ 021956Z AUTO 28009KT 9SM SCT048 SCT085 31/20 A3003 RMK AO2 SLP162 T03060200 TSNO
Pressure 30.01 in
Visibility 9.0 miles
Clouds Scattered Clouds 4800 ft
Scattered Clouds 8500 ft
Heat Index 88 °F
Dew Point 70 °F
Humidity 65%
Rainfall Not available.
Snow Depth Not available.
UV 5 out of 12
Pollen 10.40 out of 12
Air Quality Not available.
Flu Activity Not available.
METAR KBJJ 021956Z AUTO 28009KT 9SM SCT048 SCT085 31/20 A3003 RMK AO2 SLP162 T03060200 TSNO

10-Day Weather Forecast

×

Almanac

Astronomy

Sep. 02, 2015 Rise Set
Actual Time
Civil Twilight
Nautical Twilight
Astronomical Twilight
Moon
Length of Visible Light
Length of Day
Tomorrow will be .
, % of the Moon is Illuminated

Today's Extremes

State Highs State Lows

Community

WunderPhotos

Upload Photos

1,851,806 photos uploaded!

WunderBlogs® & News

Nearby

Air Quality

  Air Quality AQ Index Pollutant
Not available.

Snow Depth

Station Depth Elevation

Earthquake Activity

City Distance Mag. Time & Date
Minimum magnitude displayed is 2.5.

Coastal Water Temperatures

Place Temperature

Stations

Nearby Weather Stations

Station Location Temp. Windchill Dew Point Humidity Wind Precip. Elev Updated Type